createdAt,value
2022-12-31T00:01:18.074Z,99043.22
2022-12-31T00:03:48.031Z,99045.75
2022-12-31T00:06:18.967Z,99042.31
2022-12-31T00:08:48.177Z,99045.75
2022-12-31T00:11:16.638Z,99046.59
2022-12-31T00:13:46.794Z,99045.75
2022-12-31T00:16:16.894Z,99049.16
2022-12-31T00:18:47.810Z,99050.88
2022-12-31T00:21:17.070Z,99049.16
2022-12-31T00:23:45.485Z,99050.88
2022-12-31T00:26:17.510Z,99051.75
2022-12-31T00:28:46.712Z,99050.03
2022-12-31T00:31:17.113Z,99046.63
2022-12-31T00:33:47.494Z,99047.50
2022-12-31T00:36:19.406Z,99049.22
2022-12-31T00:38:49.776Z,99050.91
2022-12-31T00:41:19.168Z,99043.22
2022-12-31T00:43:48.107Z,99044.94
2022-12-31T00:46:17.014Z,99049.22
2022-12-31T00:48:48.257Z,99048.38
2022-12-31T00:51:19.137Z,99048.34
2022-12-31T00:53:47.417Z,99052.63
2022-12-31T00:56:19.699Z,99058.63
2022-12-31T00:58:48.513Z,99054.34
2022-12-31T01:01:19.049Z,99056.03
2022-12-31T01:03:51.159Z,99056.03
2022-12-31T01:06:20.466Z,99065.44
2022-12-31T01:08:50.880Z,99067.16
2022-12-31T01:11:23.342Z,99074.81
2022-12-31T01:13:54.166Z,99073.97
2022-12-31T01:16:23.811Z,99072.25
2022-12-31T01:18:54.228Z,99071.41
2022-12-31T01:21:25.528Z,99070.50
2022-12-31T01:23:53.720Z,99074.75
2022-12-31T01:26:22.559Z,99066.19
2022-12-31T01:28:51.023Z,99068.75
2022-12-31T01:31:21.625Z,99061.91
2022-12-31T01:33:51.721Z,99073.00
2022-12-31T01:36:26.327Z,99081.53
2022-12-31T01:38:55.114Z,99082.38
2022-12-31T01:41:25.969Z,99078.94
2022-12-31T01:43:56.446Z,99085.72
2022-12-31T01:46:37.130Z,99088.25
2022-12-31T01:49:12.274Z,99097.66
2022-12-31T01:51:45.253Z,99073.72
2022-12-31T01:54:16.531Z,99078.00
2022-12-31T01:56:46.872Z,99078.00
2022-12-31T01:59:18.409Z,99071.19
2022-12-31T02:01:48.940Z,99066.06
2022-12-31T02:04:17.965Z,99066.91
2022-12-31T02:06:52.731Z,99065.19
2022-12-31T02:09:21.455Z,99061.75
2022-12-31T02:11:49.736Z,99067.72
2022-12-31T02:14:20.715Z,99063.44
2022-12-31T02:16:57.654Z,99069.41
2022-12-31T02:20:03.339Z,99062.56
2022-12-31T02:23:01.041Z,99064.22
2022-12-31T02:25:45.511Z,99053.16
2022-12-31T02:28:29.821Z,99048.03
2022-12-31T02:31:04.481Z,99039.47
2022-12-31T02:33:38.546Z,99046.25
2022-12-31T02:36:11.693Z,99045.38
2022-12-31T02:38:43.995Z,99046.25
2022-12-31T02:41:34.121Z,99041.97
2022-12-31T02:44:02.394Z,99045.38
2022-12-31T02:46:44.282Z,99051.38
2022-12-31T02:49:22.856Z,99053.91
2022-12-31T02:51:58.837Z,99054.78
2022-12-31T02:54:37.555Z,99051.34
2022-12-31T02:57:12.257Z,99047.94
2022-12-31T03:00:07.440Z,99042.81
2022-12-31T03:02:43.430Z,99038.56
2022-12-31T03:05:13.522Z,99040.31
2022-12-31T03:07:43.308Z,99045.44
2022-12-31T03:10:12.023Z,99053.09
2022-12-31T03:12:47.556Z,99048.84
2022-12-31T03:15:21.461Z,99050.56
2022-12-31T03:17:57.344Z,99052.25
2022-12-31T03:20:45.732Z,99052.31
2022-12-31T03:23:17.183Z,99039.47
2022-12-31T03:25:44.382Z,99034.31
2022-12-31T03:28:14.727Z,99032.59
2022-12-31T03:30:45.685Z,99021.47
2022-12-31T03:33:15.900Z,99024.91
2022-12-31T03:35:44.277Z,99034.25
2022-12-31T03:38:13.084Z,99038.53
2022-12-31T03:40:42.761Z,99047.94
2022-12-31T03:43:11.296Z,99052.19
2022-12-31T03:45:41.294Z,99054.75
2022-12-31T03:48:11.029Z,99049.63
2022-12-31T03:50:40.887Z,99052.19
2022-12-31T03:53:09.247Z,99058.19
2022-12-31T03:55:37.465Z,99057.31
2022-12-31T03:58:05.730Z,99049.63
2022-12-31T04:00:33.857Z,99046.22
2022-12-31T04:03:02.183Z,99035.13
2022-12-31T04:05:32.417Z,99040.25
2022-12-31T04:08:03.285Z,99025.78
2022-12-31T04:10:31.593Z,99018.94
2022-12-31T04:13:00.623Z,99019.78
2022-12-31T04:15:28.880Z,99019.78
2022-12-31T04:17:57.074Z,99040.25
2022-12-31T04:20:25.248Z,99034.28
2022-12-31T04:22:53.620Z,99022.34
2022-12-31T04:25:23.265Z,99030.03
2022-12-31T04:27:51.677Z,99019.78
2022-12-31T04:30:20.319Z,99026.63
2022-12-31T04:32:48.624Z,99030.84
2022-12-31T04:35:18.075Z,99031.75
2022-12-31T04:37:47.373Z,99019.78
2022-12-31T04:40:15.583Z,99022.34
2022-12-31T04:42:45.162Z,99012.09
2022-12-31T04:45:13.537Z,99012.91
2022-12-31T04:47:41.939Z,99018.03
2022-12-31T04:50:10.502Z,99042.78
2022-12-31T04:52:42.673Z,99051.34
2022-12-31T04:55:12.049Z,99053.06
2022-12-31T04:57:40.533Z,99056.47
2022-12-31T05:00:11.648Z,99055.63
2022-12-31T05:02:40.070Z,99065.00
2022-12-31T05:05:09.166Z,99060.75
2022-12-31T05:07:37.237Z,99061.59
2022-12-31T05:10:06.386Z,99067.59
2022-12-31T05:12:34.724Z,99066.75
2022-12-31T05:15:03.032Z,99073.59
2022-12-31T05:17:32.822Z,99072.75
2022-12-31T05:20:01.041Z,99076.19
2022-12-31T05:22:32.109Z,99079.59
2022-12-31T05:25:01.761Z,99088.16
2022-12-31T05:27:31.685Z,99076.22
2022-12-31T05:30:00.372Z,99083.03
2022-12-31T05:32:28.774Z,99082.19
2022-12-31T05:34:59.833Z,99090.72
2022-12-31T05:37:29.596Z,99083.06
2022-12-31T05:39:58.442Z,99095.00
2022-12-31T05:42:27.147Z,99091.59
2022-12-31T05:44:55.500Z,99088.19
2022-12-31T05:47:23.907Z,99091.66
2022-12-31T05:49:52.063Z,99107.06
2022-12-31T05:52:21.870Z,99118.97
2022-12-31T05:54:50.155Z,99119.81
2022-12-31T05:57:18.476Z,99117.25
2022-12-31T05:59:46.749Z,99121.53
2022-12-31T06:02:14.864Z,99126.63
2022-12-31T06:04:43.557Z,99115.56
2022-12-31T06:07:11.673Z,99108.75
2022-12-31T06:09:41.765Z,99112.19
2022-12-31T06:12:10.763Z,99124.16
2022-12-31T06:14:45.252Z,99121.56
2022-12-31T06:17:14.194Z,99119.00
2022-12-31T06:19:42.329Z,99115.53
2022-12-31T06:22:10.449Z,99110.41
2022-12-31T06:24:38.628Z,99117.25
2022-12-31T06:27:08.258Z,99123.22
2022-12-31T06:29:36.582Z,99121.50
2022-12-31T06:32:06.250Z,99126.63
2022-12-31T06:34:34.741Z,99135.19
2022-12-31T06:37:03.021Z,99139.44
2022-12-31T06:39:31.538Z,99134.28
2022-12-31T06:42:03.012Z,99124.88
2022-12-31T06:44:32.513Z,99135.06
2022-12-31T06:47:01.180Z,99133.38
2022-12-31T06:49:29.529Z,99138.50
2022-12-31T06:51:57.775Z,99149.63
2022-12-31T06:54:26.061Z,99149.69
2022-12-31T06:56:54.703Z,99164.22
2022-12-31T06:59:26.646Z,99171.06
2022-12-31T07:02:13.831Z,99181.31
2022-12-31T07:05:20.750Z,99171.94
2022-12-31T07:07:59.437Z,99176.19
2022-12-31T07:10:41.081Z,99189.88
2022-12-31T07:13:41.458Z,99177.91
2022-12-31T07:16:23.638Z,99170.22
2022-12-31T07:19:03.228Z,99152.25
2022-12-31T07:21:35.194Z,99143.69
2022-12-31T07:24:04.218Z,99142.78
2022-12-31T07:26:52.576Z,99135.94
2022-12-31T07:29:30.728Z,99133.38
2022-12-31T07:32:12.688Z,99146.19
2022-12-31T07:34:53.200Z,99159.00
2022-12-31T07:37:32.679Z,99165.00
2022-12-31T07:40:09.786Z,99170.97
2022-12-31T07:42:42.300Z,99166.72
2022-12-31T07:45:19.441Z,99154.81
2022-12-31T07:47:48.059Z,99163.34
2022-12-31T07:50:19.668Z,99179.56
2022-12-31T07:52:48.778Z,99182.16
2022-12-31T07:55:17.353Z,99179.56
2022-12-31T07:57:54.007Z,99180.44
2022-12-31T08:00:23.268Z,99182.19
2022-12-31T08:03:17.448Z,99181.34
2022-12-31T08:05:54.225Z,99177.91
2022-12-31T08:08:34.383Z,99166.81
2022-12-31T08:11:13.912Z,99148.03
2022-12-31T08:13:44.980Z,99154.00
2022-12-31T08:16:14.781Z,99154.81
2022-12-31T08:18:43.329Z,99161.66
2022-12-31T08:21:32.770Z,99165.94
2022-12-31T08:24:15.315Z,99159.09
2022-12-31T08:26:54.163Z,99149.72
2022-12-31T08:29:35.692Z,99148.00
2022-12-31T08:32:13.718Z,99147.97
2022-12-31T08:34:53.788Z,99159.09
2022-12-31T08:37:33.388Z,99162.50
2022-12-31T08:40:15.347Z,99154.00
2022-12-31T08:42:52.995Z,99159.09
2022-12-31T08:45:28.472Z,99177.03
2022-12-31T08:48:04.783Z,99184.75
2022-12-31T08:50:35.059Z,99185.59
2022-12-31T08:53:07.827Z,99175.38
2022-12-31T08:55:36.875Z,99177.06
2022-12-31T08:58:17.101Z,99185.63
2022-12-31T09:00:44.956Z,99182.25
2022-12-31T09:03:37.680Z,99189.03
2022-12-31T09:06:16.030Z,99179.66
2022-12-31T09:08:52.806Z,99189.03
2022-12-31T09:11:26.361Z,99167.72
2022-12-31T09:14:22.794Z,99171.19
2022-12-31T09:17:02.250Z,99169.44
2022-12-31T09:19:32.445Z,99170.31
2022-12-31T09:22:00.570Z,99184.00
2022-12-31T09:24:30.903Z,99184.00
2022-12-31T09:27:07.450Z,99184.03
2022-12-31T09:29:52.015Z,99172.94
2022-12-31T09:32:27.331Z,99177.25
2022-12-31T09:34:59.265Z,99169.53
2022-12-31T09:37:39.763Z,99174.66
2022-12-31T09:40:31.269Z,99181.50
2022-12-31T09:43:18.255Z,99178.94
2022-12-31T09:46:11.835Z,99185.81
2022-12-31T09:49:10.339Z,99176.41
2022-12-31T09:51:46.477Z,99170.47
2022-12-31T09:54:29.407Z,99173.91
2022-12-31T09:57:22.928Z,99189.28
2022-12-31T09:59:59.268Z,99197.03
2022-12-31T10:02:45.529Z,99203.91
2022-12-31T10:05:37.762Z,99207.41
2022-12-31T10:08:14.533Z,99202.31
2022-12-31T10:10:51.367Z,99212.59
2022-12-31T10:13:37.639Z,99210.91
2022-12-31T10:16:41.602Z,99209.25
2022-12-31T10:19:37.492Z,99217.88
2022-12-31T10:22:25.629Z,99217.88
2022-12-31T10:25:15.893Z,99216.19
2022-12-31T10:27:52.920Z,99228.16
2022-12-31T10:30:26.774Z,99231.59
2022-12-31T10:33:08.053Z,99235.91
2022-12-31T10:35:43.943Z,99241.88
2022-12-31T10:38:24.942Z,99236.75
2022-12-31T10:41:28.172Z,99235.84
2022-12-31T10:44:37.971Z,99236.69
2022-12-31T10:47:35.753Z,99234.13
2022-12-31T10:50:39.751Z,99232.44
2022-12-31T10:53:48.239Z,99220.50
2022-12-31T10:56:54.454Z,99206.88
2022-12-31T10:59:55.380Z,99200.91
2022-12-31T11:02:58.474Z,99203.50
2022-12-31T11:05:54.638Z,99190.72
2022-12-31T11:08:46.180Z,99189.91
2022-12-31T11:11:32.190Z,99195.09
2022-12-31T11:14:48.804Z,99196.81
2022-12-31T11:17:35.804Z,99191.69
2022-12-31T11:20:44.264Z,99188.31
2022-12-31T11:23:28.636Z,99181.44
2022-12-31T11:26:08.104Z,99183.16
2022-12-31T11:28:50.846Z,99180.59
2022-12-31T11:31:34.038Z,99169.47
2022-12-31T11:34:23.437Z,99161.78
2022-12-31T11:37:12.331Z,99146.38
2022-12-31T11:39:51.268Z,99151.50
2022-12-31T11:42:33.614Z,99157.50
2022-12-31T11:45:16.553Z,99147.22
2022-12-31T11:50:58.108Z,99140.41
2022-12-31T11:53:41.425Z,99139.56
2022-12-31T11:56:19.898Z,99124.19
2022-12-31T11:58:50.560Z,99116.47
2022-12-31T12:01:23.529Z,99109.63
2022-12-31T12:03:52.067Z,99112.19
2022-12-31T12:06:28.695Z,99119.03
2022-12-31T12:09:02.837Z,99113.03
2022-12-31T12:11:36.116Z,99111.34
2022-12-31T12:14:23.167Z,99112.19
2022-12-31T12:17:00.824Z,99107.91
2022-12-31T12:19:34.999Z,99107.06
2022-12-31T12:22:12.252Z,99113.91
2022-12-31T12:24:54.414Z,99110.50
2022-12-31T12:27:29.507Z,99119.06
2022-12-31T12:29:57.742Z,99108.75
2022-12-31T12:32:27.976Z,99098.47
2022-12-31T12:34:56.350Z,99094.16
2022-12-31T12:37:33.105Z,99090.72
2022-12-31T12:40:10.243Z,99085.56
2022-12-31T12:42:52.056Z,99088.13
2022-12-31T12:45:22.333Z,99081.31
2022-12-31T12:47:55.991Z,99065.00
2022-12-31T12:50:27.883Z,99070.13
2022-12-31T12:53:26.204Z,99061.56
2022-12-31T12:56:10.528Z,99058.13
2022-12-31T12:58:52.376Z,99048.72
2022-12-31T13:01:35.222Z,99053.88
2022-12-31T13:04:35.791Z,99065.84
2022-12-31T13:07:16.210Z,99067.59
2022-12-31T13:09:55.645Z,99054.75
2022-12-31T13:12:56.799Z,99052.13
2022-12-31T13:15:30.849Z,99042.72
2022-12-31T13:18:13.510Z,99046.16
2022-12-31T13:20:49.137Z,99052.97
2022-12-31T13:23:23.873Z,99048.69
2022-12-31T13:26:04.817Z,99060.72
2022-12-31T13:28:39.112Z,99063.28
2022-12-31T13:31:13.667Z,99058.16
2022-12-31T13:33:46.063Z,99050.41
2022-12-31T13:36:18.345Z,99045.28
2022-12-31T13:38:49.890Z,99038.38
2022-12-31T13:41:22.800Z,99031.44
2022-12-31T13:43:58.203Z,99027.94
2022-12-31T13:46:35.302Z,99031.31
2022-12-31T13:49:06.769Z,99031.31
2022-12-31T13:51:43.069Z,99037.38
2022-12-31T13:54:22.572Z,99018.53
2022-12-31T13:56:53.053Z,99020.25
2022-12-31T13:59:28.471Z,99023.72
2022-12-31T14:02:10.122Z,99029.72
2022-12-31T14:04:43.585Z,99035.69
2022-12-31T14:07:17.809Z,99042.56
2022-12-31T14:09:46.661Z,99046.00
2022-12-31T14:12:31.476Z,99046.00
2022-12-31T14:15:15.384Z,99053.72
2022-12-31T14:17:49.315Z,99055.44
2022-12-31T14:20:25.416Z,99040.03
2022-12-31T14:23:08.537Z,99030.59
2022-12-31T14:25:39.939Z,99029.78
2022-12-31T14:28:16.238Z,99028.97
2022-12-31T14:30:50.680Z,99036.69
2022-12-31T14:33:44.855Z,99023.84
2022-12-31T14:36:27.783Z,99031.56
2022-12-31T14:39:07.440Z,99035.84
2022-12-31T14:42:04.421Z,99050.41
2022-12-31T14:44:52.051Z,99053.00
2022-12-31T14:47:38.012Z,99054.69
2022-12-31T14:50:11.797Z,99046.06
2022-12-31T14:52:51.222Z,99055.47
2022-12-31T14:55:30.494Z,99045.94
2022-12-31T15:01:00.872Z,99050.25
2022-12-31T15:03:46.318Z,99049.41
2022-12-31T15:06:35.571Z,99054.53
2022-12-31T15:09:24.314Z,99057.09
2022-12-31T15:12:19.081Z,99054.53
2022-12-31T15:15:09.864Z,99062.25
2022-12-31T15:17:50.045Z,99072.56
2022-12-31T15:20:36.115Z,99069.94
2022-12-31T15:23:04.977Z,99069.06
2022-12-31T15:25:40.451Z,99061.34
2022-12-31T15:28:38.053Z,99069.94
2022-12-31T15:31:19.289Z,99075.13
2022-12-31T15:34:00.302Z,99070.06
2022-12-31T15:36:31.844Z,99075.25
2022-12-31T15:39:42.143Z,99080.44
2022-12-31T15:42:38.142Z,99092.44
2022-12-31T15:45:12.995Z,99092.41
2022-12-31T15:47:48.119Z,99098.44
2022-12-31T15:50:20.522Z,99102.72
2022-12-31T15:52:54.304Z,99107.88
2022-12-31T15:55:30.496Z,99108.75
2022-12-31T15:58:03.654Z,99121.59
2022-12-31T16:00:50.318Z,99129.31
2022-12-31T16:03:25.690Z,99131.91
2022-12-31T16:05:59.483Z,99133.63
2022-12-31T16:08:32.635Z,99147.31
2022-12-31T16:11:01.638Z,99151.56
2022-12-31T16:13:31.189Z,99149.81
2022-12-31T16:16:04.871Z,99129.28
2022-12-31T16:18:42.629Z,99117.25
2022-12-31T16:21:25.902Z,99114.66
2022-12-31T16:24:02.679Z,99111.22
2022-12-31T16:26:38.477Z,99109.47
2022-12-31T16:29:15.888Z,99123.94
2022-12-31T16:31:44.825Z,99135.91
2022-12-31T16:34:16.389Z,99124.75
2022-12-31T16:36:56.240Z,99126.41
2022-12-31T16:39:32.214Z,99142.59
2022-12-31T16:42:22.716Z,99145.19
2022-12-31T16:44:52.717Z,99139.22
2022-12-31T16:47:24.713Z,99145.22
2022-12-31T16:50:02.062Z,99151.22
2022-12-31T16:52:33.996Z,99158.06
2022-12-31T16:55:12.224Z,99158.06
2022-12-31T16:57:47.037Z,99163.22
2022-12-31T17:00:19.239Z,99151.22
2022-12-31T17:02:59.796Z,99158.97
2022-12-31T17:05:35.554Z,99138.44
2022-12-31T17:08:24.322Z,99139.28
2022-12-31T17:10:54.223Z,99152.09
2022-12-31T17:13:27.707Z,99151.25
2022-12-31T17:15:59.657Z,99150.38
2022-12-31T17:18:31.793Z,99150.34
2022-12-31T17:21:12.279Z,99157.25
2022-12-31T17:23:42.914Z,99153.81
2022-12-31T17:26:14.847Z,99159.81
2022-12-31T17:28:46.105Z,99164.91
2022-12-31T17:31:32.533Z,99170.88
2022-12-31T17:34:22.752Z,99170.03
2022-12-31T17:36:55.812Z,99171.78
2022-12-31T17:39:25.843Z,99182.03
2022-12-31T17:41:57.382Z,99180.38
2022-12-31T17:44:29.470Z,99185.53
2022-12-31T17:46:58.019Z,99180.38
2022-12-31T17:49:32.181Z,99182.94
2022-12-31T17:52:00.539Z,99179.53
2022-12-31T17:54:28.734Z,99177.78
2022-12-31T17:57:03.543Z,99168.34
2022-12-31T17:59:37.607Z,99171.72
2022-12-31T18:02:13.128Z,99171.69
2022-12-31T18:04:41.842Z,99168.28
2022-12-31T18:07:10.183Z,99167.41
2022-12-31T18:09:38.427Z,99170.84
2022-12-31T18:12:09.740Z,99165.72
2022-12-31T18:14:37.883Z,99169.94
2022-12-31T18:17:18.045Z,99169.03
2022-12-31T18:20:04.359Z,99178.44
2022-12-31T18:22:33.658Z,99176.75
2022-12-31T18:25:01.860Z,99181.09
2022-12-31T18:27:32.443Z,99178.56
2022-12-31T18:30:04.542Z,99188.84
2022-12-31T18:32:34.304Z,99182.03
2022-12-31T18:35:04.286Z,99180.31
2022-12-31T18:37:34.768Z,99180.34
2022-12-31T18:40:03.152Z,99184.66
2022-12-31T18:42:35.732Z,99194.91
2022-12-31T18:45:04.823Z,99204.31
2022-12-31T18:47:37.649Z,99204.31
2022-12-31T18:50:07.538Z,99206.00
2022-12-31T18:52:36.212Z,99216.25
2022-12-31T18:55:25.444Z,99213.69
2022-12-31T18:57:55.536Z,99221.38
2022-12-31T19:00:23.957Z,99218.81
2022-12-31T19:02:52.380Z,99223.91
2022-12-31T19:05:26.086Z,99217.06
2022-12-31T19:07:54.462Z,99223.91
2022-12-31T19:10:22.974Z,99222.22
2022-12-31T19:12:51.524Z,99221.38
2022-12-31T19:15:31.125Z,99227.38
2022-12-31T19:17:59.662Z,99218.84
2022-12-31T19:20:28.082Z,99223.13
2022-12-31T19:22:57.125Z,99222.25
2022-12-31T19:25:27.828Z,99230.81
2022-12-31T19:27:56.087Z,99239.41
2022-12-31T19:30:28.682Z,99236.88
2022-12-31T19:32:57.045Z,99233.44
2022-12-31T19:35:25.941Z,99240.28
2022-12-31T19:37:55.758Z,99234.31
2022-12-31T19:40:27.087Z,99237.75
2022-12-31T19:42:56.515Z,99242.88
2022-12-31T19:45:27.327Z,99253.16
2022-12-31T19:47:58.153Z,99253.13
2022-12-31T19:50:31.861Z,99258.28
2022-12-31T19:53:00.650Z,99253.09
2022-12-31T19:55:28.767Z,99253.97
2022-12-31T19:57:56.966Z,99257.41
2022-12-31T20:00:25.063Z,99258.28
2022-12-31T20:02:56.674Z,99261.72
2022-12-31T20:05:25.713Z,99261.72
2022-12-31T20:07:54.061Z,99259.16
2022-12-31T20:10:22.265Z,99261.69
2022-12-31T20:12:50.427Z,99266.78
2022-12-31T20:15:20.990Z,99255.69
2022-12-31T20:17:52.063Z,99259.06
2022-12-31T20:20:21.758Z,99253.91
2022-12-31T20:22:51.545Z,99257.38
2022-12-31T20:25:20.011Z,99258.22
2022-12-31T20:27:48.296Z,99256.53
2022-12-31T20:30:20.023Z,99249.63
2022-12-31T20:32:48.428Z,99252.97
2022-12-31T20:35:18.452Z,99252.06
2022-12-31T20:37:48.053Z,99259.63
2022-12-31T20:40:16.407Z,99263.94
2022-12-31T20:42:46.550Z,99269.91
2022-12-31T20:45:14.733Z,99269.91
2022-12-31T20:47:43.389Z,99274.13
2022-12-31T20:50:12.677Z,99279.22
2022-12-31T20:52:41.614Z,99292.03
2022-12-31T20:55:19.327Z,99288.63
2022-12-31T20:57:47.756Z,99287.75
2022-12-31T21:00:19.490Z,99284.34
2022-12-31T21:02:57.586Z,99286.03
2022-12-31T21:05:32.654Z,99286.88
2022-12-31T21:08:00.854Z,99285.16
2022-12-31T21:10:30.809Z,99280.03
2022-12-31T21:12:57.793Z,99280.88
2022-12-31T21:15:26.278Z,99288.56
2022-12-31T21:17:57.134Z,99290.28
2022-12-31T21:20:26.449Z,99284.25
2022-12-31T21:22:55.075Z,99279.97
2022-12-31T21:25:23.363Z,99290.19
2022-12-31T21:27:59.377Z,99283.28
2022-12-31T21:30:27.464Z,99283.25
2022-12-31T21:32:56.026Z,99280.69
2022-12-31T21:35:42.696Z,99281.50
2022-12-31T21:38:12.787Z,99273.81
2022-12-31T21:40:44.862Z,99272.94
2022-12-31T21:43:15.794Z,99289.19
2022-12-31T21:45:44.692Z,99282.34
2022-12-31T21:48:25.127Z,99283.19
2022-12-31T21:50:54.987Z,99284.03
2022-12-31T21:53:30.444Z,99288.31
2022-12-31T21:56:09.888Z,99298.56
2022-12-31T21:58:44.476Z,99298.56
2022-12-31T22:01:35.313Z,99300.25
2022-12-31T22:04:04.272Z,99308.81
2022-12-31T22:06:36.974Z,99308.03
2022-12-31T22:09:07.961Z,99315.72
2022-12-31T22:11:37.326Z,99323.41
2022-12-31T22:14:08.261Z,99322.56
2022-12-31T22:16:37.635Z,99332.81
2022-12-31T22:19:06.388Z,99330.25
2022-12-31T22:21:34.601Z,99326.84
2022-12-31T22:24:03.826Z,99336.28
2022-12-31T22:26:32.373Z,99345.69
2022-12-31T22:29:01.228Z,99351.66
2022-12-31T22:31:31.737Z,99353.38
2022-12-31T22:34:02.052Z,99351.69
2022-12-31T22:36:30.296Z,99347.38
2022-12-31T22:38:59.237Z,99353.38
2022-12-31T22:41:29.555Z,99351.66
2022-12-31T22:44:03.975Z,99360.13
2022-12-31T22:46:42.347Z,99361.06
2022-12-31T22:49:11.792Z,99361.91
2022-12-31T22:51:57.670Z,99360.19
2022-12-31T22:54:26.997Z,99363.53
2022-12-31T22:56:55.804Z,99378.84
2022-12-31T22:59:25.311Z,99373.72
2022-12-31T23:01:57.728Z,99377.06
2022-12-31T23:04:27.505Z,99377.84
2022-12-31T23:06:56.962Z,99384.63
2022-12-31T23:09:43.118Z,99393.13
2022-12-31T23:12:12.096Z,99384.53
2022-12-31T23:14:57.436Z,99385.38
2022-12-31T23:17:46.353Z,99390.50
2022-12-31T23:20:34.681Z,99394.78
2022-12-31T23:23:12.918Z,99404.19
2022-12-31T23:25:43.841Z,99411.13
2022-12-31T23:28:13.978Z,99413.81
2022-12-31T23:30:43.458Z,99413.88
2022-12-31T23:33:15.645Z,99409.59
2022-12-31T23:35:44.542Z,99416.50
2022-12-31T23:38:13.459Z,99423.31
2022-12-31T23:40:42.718Z,99431.03
2022-12-31T23:43:19.801Z,99430.22
2022-12-31T23:45:51.069Z,99443.03
2022-12-31T23:48:23.997Z,99438.75
2022-12-31T23:50:54.391Z,99449.88
2022-12-31T23:53:23.415Z,99451.56
2022-12-31T23:55:52.167Z,99452.47
2022-12-31T23:58:21.291Z,99447.34
